New Auburn, Wisconsin
Current Conditions -  °F | °C
As of 11:55 AM on Sunday 21 Dec 2014 (Local Time) from KY23 Reporting Station
Light Snow Light Snow  
Wind Chill: 24°   Ceiling: 400
Heat Index: 32°   Visibility: 0.75mi
Dew Point: 31°   Wind: 9mph
Humidity: 98%   Direction: 120°ESE
Pressure: 29.88"   Gusts: NA
Location:  45.2°N, 91.56°W
Report Text: KY23 211755Z AUTO 12008KT 3/4SM -SN OVC004 00/00 A2988 RMK AO2 P0002 60002 T00001003 10000 21011
Loading
Personal Weather Stations






























Interactive Weather Map New forecast layout! Learn more

10-Day Weather Forecast

Advertisements
Track Severe Weather on mobile